Time;durP1;ratioP1;P1;durP2;ratioP2;P2;SDS_P1;SDS_P2;PMS_P1;PMS_P2;Temp;Humidity;BMP_temperature;BMP_pressure;BME280_temperature;BME280_humidity;BME280_pressure;Samples;Min_cycle;Max_cycle;Signal;HPM_P1;HPM_P2
2023/08/21 00:01:24;;;;;;;12.73;10.48;;;;;;;;;;5053840;28;20405;-58
2023/08/21 00:03:51;;;;;;;10.75;9.55;;;;;;;;;;5053926;28;20055;-57
2023/08/21 00:06:18;;;;;;;11.25;9.57;;;;;;;;;;5053868;28;20043;-57
2023/08/21 00:08:45;;;;;;;12.65;10.15;;;;;;;;;;5053890;28;20045;-54
2023/08/21 00:11:11;;;;;;;12.65;10.63;;;;;;;;;;5053520;28;20336;-56
2023/08/21 00:13:38;;;;;;;11.60;10.07;;;;;;;;;;5053422;28;20041;-54
2023/08/21 00:16:04;;;;;;;12.48;10.60;;;;;;;;;;5053347;28;20051;-57
2023/08/21 00:18:31;;;;;;;10.98;9.85;;;;;;;;;;5053879;28;20413;-55
2023/08/21 00:20:59;;;;;;;11.35;10.23;;;;;;;;;;5053393;28;20583;-57
2023/08/21 00:23:26;;;;;;;10.68;9.57;;;;;;;;;;5053464;28;20048;-56
2023/08/21 00:25:53;;;;;;;11.57;10.13;;;;;;;;;;5053463;28;20498;-57
2023/08/21 00:28:19;;;;;;;11.70;10.10;;;;;;;;;;5053614;28;20497;-55
2023/08/21 00:30:46;;;;;;;11.23;10.00;;;;;;;;;;5053521;28;20052;-57
2023/08/21 00:33:13;;;;;;;11.85;10.65;;;;;;;;;;5053465;28;20488;-57
2023/08/21 00:35:39;;;;;;;12.70;10.13;;;;;;;;;;5053316;28;20136;-58
2023/08/21 00:38:07;;;;;;;11.80;10.70;;;;;;;;;;5053258;28;20041;-56
2023/08/21 00:40:34;;;;;;;11.50;10.32;;;;;;;;;;5053346;28;20048;-57
2023/08/21 00:43:00;;;;;;;11.57;10.38;;;;;;;;;;5053265;28;20045;-57
2023/08/21 00:45:27;;;;;;;10.77;9.68;;;;;;;;;;5053242;28;20049;-56
2023/08/21 00:47:55;;;;;;;11.40;10.10;;;;;;;;;;5053535;28;20462;-53
2023/08/21 00:50:22;;;;;;;12.13;10.10;;;;;;;;;;5053223;28;20056;-54
2023/08/21 00:52:50;;;;;;;11.27;10.18;;;;;;;;;;5053168;28;20048;-53
2023/08/21 00:55:18;;;;;;;11.73;10.55;;;;;;;;;;5053445;28;20049;-57
2023/08/21 00:57:46;;;;;;;11.90;10.73;;;;;;;;;;5053121;28;20045;-58
2023/08/21 01:00:14;;;;;;;11.73;10.52;;;;;;;;;;5052598;28;20057;-57
2023/08/21 01:02:40;;;;;;;12.05;10.85;;;;;;;;;;5052808;28;20106;-56
2023/08/21 01:05:09;;;;;;;12.85;11.48;;;;;;;;;;5052577;28;20505;-57
2023/08/21 01:07:43;;;;;;;13.23;11.43;;;;;;;;;;5052632;28;20075;-54
2023/08/21 01:10:16;;;;;;;12.40;11.20;;;;;;;;;;5052454;28;20049;-58
2023/08/21 01:12:51;;;;;;;12.18;10.98;;;;;;;;;;5052690;28;20045;-52
2023/08/21 01:15:18;;;;;;;12.93;11.52;;;;;;;;;;5052408;28;20532;-53
2023/08/21 01:17:48;;;;;;;12.52;11.23;;;;;;;;;;5052702;28;20045;-55
2023/08/21 01:20:16;;;;;;;13.05;10.88;;;;;;;;;;5052394;28;20047;-55
2023/08/21 01:22:45;;;;;;;11.77;10.55;;;;;;;;;;5052483;28;20142;-57
2023/08/21 01:25:15;;;;;;;12.93;11.63;;;;;;;;;;5052147;28;20045;-59
2023/08/21 01:27:44;;;;;;;12.20;11.02;;;;;;;;;;5052891;28;20041;-56
2023/08/21 01:30:11;;;;;;;12.57;11.38;;;;;;;;;;5052240;28;20494;-54
2023/08/21 01:32:48;;;;;;;13.43;12.02;;;;;;;;;;5052434;28;20107;-57
2023/08/21 01:35:15;;;;;;;13.38;12.07;;;;;;;;;;5052314;28;20084;-56
2023/08/21 01:37:43;;;;;;;13.98;12.48;;;;;;;;;;5052156;28;20462;-52
2023/08/21 01:40:11;;;;;;;14.38;12.50;;;;;;;;;;5052079;28;20132;-55
2023/08/21 01:42:39;;;;;;;14.88;12.38;;;;;;;;;;5052497;28;20053;-51
2023/08/21 01:45:07;;;;;;;14.13;12.63;;;;;;;;;;5052255;28;20052;-53
2023/08/21 01:47:33;;;;;;;14.43;12.90;;;;;;;;;;5051881;28;20460;-54
2023/08/21 01:50:00;;;;;;;15.07;13.23;;;;;;;;;;5051981;28;20051;-55
2023/08/21 01:52:27;;;;;;;13.10;11.80;;;;;;;;;;5052343;28;20419;-57
2023/08/21 01:54:53;;;;;;;13.30;11.82;;;;;;;;;;5052093;28;20049;-58
2023/08/21 01:57:20;;;;;;;12.30;11.00;;;;;;;;;;5052126;28;20059;-56
2023/08/21 01:59:48;;;;;;;12.68;11.38;;;;;;;;;;5051716;28;20045;-56
2023/08/21 02:02:15;;;;;;;11.88;10.68;;;;;;;;;;5051548;28;20087;-57
2023/08/21 02:04:42;;;;;;;11.73;10.52;;;;;;;;;;5052089;28;20049;-56
2023/08/21 02:07:08;;;;;;;10.52;9.35;;;;;;;;;;5051724;28;20077;-55
2023/08/21 02:09:35;;;;;;;10.98;8.90;;;;;;;;;;5051916;28;20049;-58
2023/08/21 02:12:01;;;;;;;11.38;8.93;;;;;;;;;;5051902;28;20049;-52
2023/08/21 02:14:29;;;;;;;11.18;8.82;;;;;;;;;;5051967;28;20047;-57
2023/08/21 02:16:57;;;;;;;10.25;9.13;;;;;;;;;;5051721;28;20045;-54
2023/08/21 02:19:23;;;;;;;10.90;9.10;;;;;;;;;;5051877;28;20466;-54
2023/08/21 02:21:50;;;;;;;8.90;8.00;;;;;;;;;;5051894;28;20051;-57
2023/08/21 02:24:16;;;;;;;9.65;8.65;;;;;;;;;;5051567;28;20049;-56
2023/08/21 02:26:45;;;;;;;11.15;9.40;;;;;;;;;;5051716;28;20483;-57
2023/08/21 02:29:12;;;;;;;10.07;9.00;;;;;;;;;;5051302;28;20044;-56
2023/08/21 02:31:38;;;;;;;8.70;7.80;;;;;;;;;;5051566;28;20500;-56
2023/08/21 02:34:06;;;;;;;9.05;7.72;;;;;;;;;;5051613;28;20077;-54
2023/08/21 02:36:33;;;;;;;9.13;8.02;;;;;;;;;;5055241;28;20575;-54
2023/08/21 02:39:00;;;;;;;9.48;7.78;;;;;;;;;;5055738;28;20041;-53
2023/08/21 02:41:26;;;;;;;8.57;7.15;;;;;;;;;;5055706;28;20464;-58
2023/08/21 02:43:53;;;;;;;10.38;9.15;;;;;;;;;;5055634;28;20046;-53
2023/08/21 02:46:20;;;;;;;9.10;7.72;;;;;;;;;;5055442;28;20333;-57
2023/08/21 02:48:46;;;;;;;8.13;7.30;;;;;;;;;;5055456;28;20045;-57
2023/08/21 02:51:14;;;;;;;9.32;8.07;;;;;;;;;;5055652;28;20127;-56
2023/08/21 02:53:41;;;;;;;8.32;7.47;;;;;;;;;;5055560;28;20429;-58
2023/08/21 02:56:08;;;;;;;8.55;7.68;;;;;;;;;;5055564;28;20132;-54
2023/08/21 02:58:34;;;;;;;9.38;8.48;;;;;;;;;;5049790;28;20479;-57
2023/08/21 03:01:01;;;;;;;8.93;7.63;;;;;;;;;;5055136;28;20300;-57
2023/08/21 03:03:27;;;;;;;10.82;8.70;;;;;;;;;;5055308;28;20045;-59
2023/08/21 03:05:54;;;;;;;9.80;8.18;;;;;;;;;;5055237;28;20053;-55
2023/08/21 03:08:22;;;;;;;9.48;8.48;;;;;;;;;;5055616;28;20479;-57
2023/08/21 03:10:49;;;;;;;9.63;8.63;;;;;;;;;;5054503;28;20052;-57
2023/08/21 03:13:15;;;;;;;10.32;9.32;;;;;;;;;;5055082;28;20071;-60
2023/08/21 03:15:42;;;;;;;11.82;8.93;;;;;;;;;;5055056;28;20495;-59
2023/08/21 03:18:09;;;;;;;11.00;8.48;;;;;;;;;;5054884;28;20045;-54
2023/08/21 03:20:36;;;;;;;11.30;8.95;;;;;;;;;;5054719;28;20047;-55
2023/08/21 03:23:03;;;;;;;8.95;8.07;;;;;;;;;;5055176;28;20566;-56
2023/08/21 03:25:31;;;;;;;12.10;8.73;;;;;;;;;;5054596;28;20049;-56
2023/08/21 03:27:57;;;;;;;9.65;8.20;;;;;;;;;;5054937;28;20057;-58
2023/08/21 03:30:24;;;;;;;9.63;8.10;;;;;;;;;;5054475;28;20492;-52
2023/08/21 03:32:50;;;;;;;11.20;8.95;;;;;;;;;;5054587;28;20049;-54
2023/08/21 03:35:17;;;;;;;9.77;8.77;;;;;;;;;;5054684;28;20059;-53
2023/08/21 03:37:44;;;;;;;10.52;8.73;;;;;;;;;;5054234;28;20052;-52
2023/08/21 03:40:11;;;;;;;9.93;8.80;;;;;;;;;;5054481;28;20040;-56
2023/08/21 03:42:39;;;;;;;10.43;9.18;;;;;;;;;;5054634;28;20055;-55
2023/08/21 03:45:07;;;;;;;11.57;10.43;;;;;;;;;;5054505;28;20051;-57
2023/08/21 03:47:34;;;;;;;11.23;10.02;;;;;;;;;;5053320;28;20087;-55
2023/08/21 03:50:00;;;;;;;11.07;9.93;;;;;;;;;;5054244;28;20051;-56
2023/08/21 03:52:27;;;;;;;12.48;10.88;;;;;;;;;;5053956;28;20037;-57
2023/08/21 03:54:53;;;;;;;12.27;10.30;;;;;;;;;;5054198;28;20071;-55
2023/08/21 03:57:20;;;;;;;11.98;10.70;;;;;;;;;;5054516;28;20132;-58
2023/08/21 03:59:48;;;;;;;11.43;10.20;;;;;;;;;;5054168;28;20096;-52
2023/08/21 04:02:15;;;;;;;12.55;10.63;;;;;;;;;;5053548;28;20108;-57
2023/08/21 04:04:41;;;;;;;12.05;10.63;;;;;;;;;;5054113;28;20080;-57
2023/08/21 04:07:08;;;;;;;12.00;10.63;;;;;;;;;;5054074;28;20404;-58
2023/08/21 04:09:34;;;;;;;12.45;10.25;;;;;;;;;;5054311;28;20048;-53
2023/08/21 04:12:01;;;;;;;11.75;10.57;;;;;;;;;;5053936;28;20486;-59
2023/08/21 04:14:28;;;;;;;11.45;10.23;;;;;;;;;;5054068;28;20052;-57
2023/08/21 04:16:56;;;;;;;12.75;10.05;;;;;;;;;;5053952;28;20436;-55
2023/08/21 04:19:22;;;;;;;11.38;9.05;;;;;;;;;;5053874;28;20060;-55
2023/08/21 04:21:49;;;;;;;11.40;10.15;;;;;;;;;;5053638;28;20127;-54
2023/08/21 04:24:15;;;;;;;11.75;9.68;;;;;;;;;;5054047;28;20049;-55
2023/08/21 04:26:42;;;;;;;11.10;9.25;;;;;;;;;;5053771;28;20554;-56
2023/08/21 04:29:09;;;;;;;10.90;9.55;;;;;;;;;;5053735;28;20132;-58
2023/08/21 04:31:36;;;;;;;13.65;10.63;;;;;;;;;;5053570;28;20053;-59
2023/08/21 04:34:04;;;;;;;13.63;11.23;;;;;;;;;;5053226;28;20055;-56
2023/08/21 04:36:30;;;;;;;12.30;11.00;;;;;;;;;;5053478;28;20056;-57
2023/08/21 04:38:57;;;;;;;13.77;12.48;;;;;;;;;;5053795;28;20044;-56
2023/08/21 04:41:24;;;;;;;14.95;11.93;;;;;;;;;;5053260;28;20128;-56
2023/08/21 04:43:50;;;;;;;12.80;11.25;;;;;;;;;;5053229;28;20151;-57
2023/08/21 04:46:17;;;;;;;13.93;11.82;;;;;;;;;;5053080;28;20049;-56
2023/08/21 04:48:44;;;;;;;13.60;11.57;;;;;;;;;;5053440;28;20071;-52
2023/08/21 04:51:12;;;;;;;14.18;12.07;;;;;;;;;;5053344;28;20642;-54
2023/08/21 04:53:38;;;;;;;14.93;12.52;;;;;;;;;;5053313;28;20131;-53
2023/08/21 04:56:05;;;;;;;14.57;12.65;;;;;;;;;;5053407;28;20514;-55
2023/08/21 04:58:32;;;;;;;14.60;12.95;;;;;;;;;;5053245;28;20049;-53
2023/08/21 05:00:59;;;;;;;15.35;13.30;;;;;;;;;;5052984;28;20135;-55
2023/08/21 05:03:25;;;;;;;15.20;12.52;;;;;;;;;;5053121;28;20091;-57
2023/08/21 05:05:56;;;;;;;15.23;12.85;;;;;;;;;;5052946;28;20049;-56
2023/08/21 05:08:25;;;;;;;14.95;11.90;;;;;;;;;;5053369;28;20421;-57
2023/08/21 05:10:55;;;;;;;14.93;13.02;;;;;;;;;;5053203;28;20504;-57
2023/08/21 05:13:22;;;;;;;15.68;12.30;;;;;;;;;;5052939;28;20056;-55
2023/08/21 05:15:52;;;;;;;14.45;12.55;;;;;;;;;;5052462;28;20040;-57
2023/08/21 05:18:18;;;;;;;;;;;;;;;;;;5053149;28;20048;-57
2023/08/21 05:20:45;;;;;;;12.93;11.07;;;;;;;;;;5052665;28;19921;-59
2023/08/21 05:23:12;;;;;;;14.50;11.23;;;;;;;;;;5052708;28;20047;-54
2023/08/21 05:25:40;;;;;;;13.10;11.48;;;;;;;;;;5052014;28;20045;-54
2023/08/21 05:28:07;;;;;;;12.15;10.82;;;;;;;;;;5052891;28;20136;-55
2023/08/21 05:30:36;;;;;;;11.55;10.35;;;;;;;;;;5051932;28;20067;-56
2023/08/21 05:33:03;;;;;;;12.20;9.70;;;;;;;;;;5052108;28;20053;-54
2023/08/21 05:35:30;;;;;;;12.80;10.50;;;;;;;;;;5051850;28;20140;-54
2023/08/21 05:37:56;;;;;;;12.10;10.50;;;;;;;;;;5052498;28;20041;-52
2023/08/21 05:40:23;;;;;;;11.30;10.05;;;;;;;;;;5041541;28;20563;-53
2023/08/21 05:42:51;;;;;;;11.77;10.27;;;;;;;;;;5047012;28;20139;-54
2023/08/21 05:45:17;;;;;;;11.30;10.07;;;;;;;;;;5043699;28;20143;-56
2023/08/21 05:47:44;;;;;;;11.95;10.40;;;;;;;;;;5050437;28;20127;-58
2023/08/21 05:50:11;;;;;;;11.60;9.80;;;;;;;;;;5052327;28;20045;-55
2023/08/21 05:52:37;;;;;;;12.07;10.02;;;;;;;;;;5052114;28;20041;-50
2023/08/21 05:55:05;;;;;;;12.95;9.43;;;;;;;;;;5052018;28;20047;-56
2023/08/21 05:57:31;;;;;;;11.27;8.93;;;;;;;;;;5052275;28;20049;-55
2023/08/21 05:59:59;;;;;;;14.27;9.07;;;;;;;;;;5049163;28;20411;-55
2023/08/21 06:02:26;;;;;;;11.80;7.78;;;;;;;;;;5032408;28;20045;-53
2023/08/21 06:04:53;;;;;;;13.80;9.07;;;;;;;;;;5032714;28;20491;-54
2023/08/21 06:07:19;;;;;;;11.52;8.63;;;;;;;;;;5051308;28;20056;-54
2023/08/21 06:09:46;;;;;;;10.73;8.52;;;;;;;;;;5051218;28;20140;-57
2023/08/21 06:12:13;;;;;;;11.50;8.57;;;;;;;;;;5051526;28;20045;-54
2023/08/21 06:14:39;;;;;;;9.45;8.55;;;;;;;;;;5052042;28;20065;-57
2023/08/21 06:17:07;;;;;;;11.85;8.48;;;;;;;;;;5051824;28;20049;-57
2023/08/21 06:19:34;;;;;;;13.70;9.77;;;;;;;;;;5052028;28;20048;-57
2023/08/21 06:22:01;;;;;;;11.73;9.98;;;;;;;;;;5052207;28;20045;-54
2023/08/21 06:24:27;;;;;;;11.93;8.43;;;;;;;;;;5052103;28;20045;-54
2023/08/21 06:26:54;;;;;;;10.68;9.10;;;;;;;;;;5051458;28;20052;-54
2023/08/21 06:29:21;;;;;;;11.63;9.07;;;;;;;;;;5051828;28;20084;-59
2023/08/21 06:31:48;;;;;;;11.32;8.90;;;;;;;;;;5048119;28;20072;-58
2023/08/21 06:34:16;;;;;;;12.95;9.55;;;;;;;;;;5051726;28;20509;-55
2023/08/21 06:36:42;;;;;;;11.30;9.15;;;;;;;;;;5051793;28;20045;-54
2023/08/21 06:39:10;;;;;;;11.73;9.55;;;;;;;;;;5051107;28;20435;-55
2023/08/21 06:41:36;;;;;;;10.77;9.60;;;;;;;;;;5051177;28;20053;-51
2023/08/21 06:44:03;;;;;;;11.23;9.00;;;;;;;;;;5051339;28;20391;-57
2023/08/21 06:46:29;;;;;;;10.52;8.65;;;;;;;;;;5048570;28;20045;-58
2023/08/21 06:48:56;;;;;;;12.07;10.00;;;;;;;;;;5050990;28;20049;-50
2023/08/21 06:51:24;;;;;;;12.00;9.48;;;;;;;;;;5051393;28;20231;-55
2023/08/21 06:53:51;;;;;;;11.45;9.68;;;;;;;;;;5051285;28;20131;-53
2023/08/21 06:56:17;;;;;;;11.02;8.98;;;;;;;;;;5051167;28;20524;-56
2023/08/21 06:58:44;;;;;;;10.65;9.27;;;;;;;;;;5051441;28;20120;-57
2023/08/21 07:01:10;;;;;;;11.30;9.18;;;;;;;;;;5050995;28;20047;-57
2023/08/21 07:03:37;;;;;;;12.55;9.52;;;;;;;;;;5047878;28;20135;-55
2023/08/21 07:06:04;;;;;;;10.65;9.40;;;;;;;;;;5039646;28;20507;-54
2023/08/21 07:08:32;;;;;;;10.25;8.85;;;;;;;;;;5045391;28;20129;-57
2023/08/21 07:10:58;;;;;;;11.05;9.10;;;;;;;;;;5037750;28;20478;-54
2023/08/21 07:13:25;;;;;;;14.52;9.52;;;;;;;;;;5035782;28;20391;-57
2023/08/21 07:15:54;;;;;;;11.52;9.57;;;;;;;;;;5045316;28;20049;-56
2023/08/21 07:18:21;;;;;;;10.80;8.68;;;;;;;;;;5040825;28;20144;-55
2023/08/21 07:20:48;;;;;;;10.40;8.93;;;;;;;;;;5044931;28;20127;-57
2023/08/21 07:23:14;;;;;;;11.18;9.15;;;;;;;;;;5046161;28;20431;-54
2023/08/21 07:25:42;;;;;;;10.85;9.63;;;;;;;;;;5046138;28;20044;-59
2023/08/21 07:28:10;;;;;;;11.20;9.20;;;;;;;;;;5048390;28;20045;-54
2023/08/21 07:30:38;;;;;;;10.63;8.75;;;;;;;;;;5051727;28;20414;-57
2023/08/21 07:33:05;;;;;;;11.45;10.05;;;;;;;;;;5051996;28;20045;-59
2023/08/21 07:35:31;;;;;;;10.93;9.02;;;;;;;;;;5051517;28;20049;-57
2023/08/21 07:37:58;;;;;;;12.20;9.70;;;;;;;;;;5042348;28;20053;-54
2023/08/21 07:40:25;;;;;;;12.13;8.90;;;;;;;;;;5040912;28;20703;-58
2023/08/21 07:42:53;;;;;;;10.32;9.20;;;;;;;;;;5048736;28;20604;-54
2023/08/21 07:45:19;;;;;;;9.80;8.80;;;;;;;;;;5050113;28;20051;-56
2023/08/21 07:47:46;;;;;;;9.73;8.35;;;;;;;;;;5051296;28;20403;-59
2023/08/21 07:50:14;;;;;;;9.98;8.82;;;;;;;;;;5051294;28;20059;-58
2023/08/21 07:52:40;;;;;;;9.85;8.38;;;;;;;;;;5051326;28;20482;-57
2023/08/21 07:55:08;;;;;;;10.10;8.93;;;;;;;;;;5051775;28;20060;-56
2023/08/21 07:57:35;;;;;;;11.73;9.52;;;;;;;;;;5049937;28;20558;-58
2023/08/21 08:00:04;;;;;;;9.63;8.63;;;;;;;;;;5038763;28;20047;-58
2023/08/21 08:02:31;;;;;;;9.77;8.77;;;;;;;;;;5043089;28;20361;-55
2023/08/21 08:04:57;;;;;;;11.48;9.95;;;;;;;;;;5049594;28;20132;-60
2023/08/21 08:07:24;;;;;;;10.70;9.60;;;;;;;;;;5048143;28;20037;-57
2023/08/21 08:09:51;;;;;;;10.43;9.32;;;;;;;;;;5044117;28;20536;-59
2023/08/21 08:12:17;;;;;;;12.07;8.80;;;;;;;;;;5045427;28;20478;-62
2023/08/21 08:14:44;;;;;;;12.05;9.13;;;;;;;;;;5049082;28;20140;-59
2023/08/21 08:17:12;;;;;;;10.57;9.57;;;;;;;;;;5050540;28;20055;-62
2023/08/21 08:19:38;;;;;;;10.55;9.40;;;;;;;;;;5050679;28;20149;-62
2023/08/21 08:22:05;;;;;;;10.75;9.10;;;;;;;;;;5050399;28;20417;-65
2023/08/21 08:24:32;;;;;;;11.00;9.88;;;;;;;;;;5050778;28;20045;-66
2023/08/21 08:26:58;;;;;;;10.70;9.65;;;;;;;;;;5049805;28;20041;-60
2023/08/21 08:29:25;;;;;;;9.73;8.82;;;;;;;;;;5049910;28;20048;-57
2023/08/21 08:31:51;;;;;;;10.13;9.13;;;;;;;;;;5051814;28;20053;-58
2023/08/21 08:34:20;;;;;;;11.77;9.43;;;;;;;;;;5049916;28;20521;-58
2023/08/21 08:36:47;;;;;;;10.23;9.00;;;;;;;;;;5049752;28;20063;-59
2023/08/21 08:39:13;;;;;;;10.65;8.93;;;;;;;;;;5054881;28;20048;-59
2023/08/21 08:41:52;;;;;;;10.50;9.23;;;;;;;;;;5050110;28;20044;-60
2023/08/21 08:44:19;;;;;;;10.13;9.02;;;;;;;;;;5049766;28;20048;-56
2023/08/21 08:46:45;;;;;;;10.05;8.85;;;;;;;;;;5050590;28;20501;-59
2023/08/21 08:49:13;;;;;;;10.32;9.27;;;;;;;;;;5049715;28;20414;-59
2023/08/21 08:51:43;;;;;;;9.63;8.45;;;;;;;;;;5050865;28;20040;-59
2023/08/21 08:54:11;;;;;;;9.65;8.65;;;;;;;;;;5050073;28;20133;-58
2023/08/21 08:56:38;;;;;;;9.43;8.43;;;;;;;;;;5050030;28;20045;-60
2023/08/21 08:59:06;;;;;;;10.27;8.65;;;;;;;;;;5049844;28;20045;-57
2023/08/21 09:01:33;;;;;;;9.98;8.98;;;;;;;;;;5050152;28;20530;-53
2023/08/21 09:04:00;;;;;;;9.73;8.82;;;;;;;;;;5049581;28;20041;-59
2023/08/21 09:06:27;;;;;;;8.25;6.60;;;;;;;;;;5049623;28;20044;-58
2023/08/21 09:08:56;;;;;;;8.85;7.50;;;;;;;;;;5049571;28;20060;-56
2023/08/21 09:11:23;;;;;;;9.55;8.00;;;;;;;;;;5049591;28;20047;-59
2023/08/21 09:13:51;;;;;;;9.00;8.10;;;;;;;;;;5050016;28;20150;-57
2023/08/21 09:16:18;;;;;;;10.73;8.55;;;;;;;;;;5049400;28;20060;-60
2023/08/21 09:18:48;;;;;;;8.57;7.70;;;;;;;;;;5050059;28;20129;-60
2023/08/21 09:21:16;;;;;;;;;;;;;;;;;;5046411;28;20040;-57
2023/08/21 09:23:43;;;;;;;9.98;7.57;;;;;;;;;;5048019;28;20307;-57
2023/08/21 09:26:10;;;;;;;8.57;7.68;;;;;;;;;;5048715;28;20131;-61
2023/08/21 09:28:38;;;;;;;8.77;7.88;;;;;;;;;;5046118;28;20037;-60
2023/08/21 09:31:05;;;;;;;8.30;7.40;;;;;;;;;;5046614;28;20055;-59
2023/08/21 09:33:32;;;;;;;8.88;6.90;;;;;;;;;;5048515;28;20063;-60
2023/08/21 09:35:59;;;;;;;8.48;7.45;;;;;;;;;;5044337;28;20087;-59
2023/08/21 09:38:27;;;;;;;9.02;7.43;;;;;;;;;;5045305;28;20073;-59
2023/08/21 09:40:55;;;;;;;10.25;8.35;;;;;;;;;;5045939;28;20049;-57
2023/08/21 09:43:24;;;;;;;10.45;8.73;;;;;;;;;;5046714;28;20409;-57
2023/08/21 09:45:56;;;;;;;11.60;7.65;;;;;;;;;;5042924;28;20053;-55
2023/08/21 09:48:23;;;;;;;9.07;8.18;;;;;;;;;;5048899;28;20051;-59
2023/08/21 09:50:51;;;;;;;10.88;8.00;;;;;;;;;;5049300;28;20045;-60
2023/08/21 09:53:18;;;;;;;10.70;7.38;;;;;;;;;;5044532;28;20056;-60
2023/08/21 09:55:46;;;;;;;12.00;8.02;;;;;;;;;;5039136;28;20052;-59
2023/08/21 09:58:14;;;;;;;8.65;7.80;;;;;;;;;;5043504;28;20127;-62
2023/08/21 10:00:42;;;;;;;8.57;7.63;;;;;;;;;;5048649;28;20044;-62
2023/08/21 10:03:10;;;;;;;8.70;7.80;;;;;;;;;;5048181;28;20045;-58
2023/08/21 10:05:39;;;;;;;7.78;6.97;;;;;;;;;;5048043;28;20414;-58
2023/08/21 10:08:07;;;;;;;8.38;7.03;;;;;;;;;;5049019;28;20505;-54
2023/08/21 10:10:35;;;;;;;7.82;7.00;;;;;;;;;;5049043;28;20573;-56
2023/08/21 10:13:03;;;;;;;7.90;7.10;;;;;;;;;;5044248;28;20134;-58
2023/08/21 10:15:31;;;;;;;8.52;6.90;;;;;;;;;;5048556;28;20055;-58
2023/08/21 10:17:59;;;;;;;6.85;6.15;;;;;;;;;;5048847;28;20056;-58
2023/08/21 10:20:27;;;;;;;6.68;5.95;;;;;;;;;;5046678;28;20048;-59
2023/08/21 10:22:55;;;;;;;7.45;6.72;;;;;;;;;;5048559;28;20063;-54
2023/08/21 10:25:23;;;;;;;7.05;6.05;;;;;;;;;;5047845;28;20483;-56
2023/08/21 10:27:54;;;;;;;6.82;6.13;;;;;;;;;;5046375;28;20110;-56
2023/08/21 10:30:22;;;;;;;9.23;7.20;;;;;;;;;;5041268;28;20075;-56
2023/08/21 10:32:50;;;;;;;8.23;7.43;;;;;;;;;;5043735;28;20517;-59
2023/08/21 10:35:20;;;;;;;7.22;6.47;;;;;;;;;;5045660;28;20224;-54
2023/08/21 10:38:09;;;;;;;7.15;6.45;;;;;;;;;;5048393;28;20056;-57
2023/08/21 10:40:36;;;;;;;8.77;7.00;;;;;;;;;;5047684;28;20490;-59
2023/08/21 10:43:03;;;;;;;6.85;6.15;;;;;;;;;;5044092;28;20075;-56
2023/08/21 10:45:30;;;;;;;7.65;6.40;;;;;;;;;;5046715;28;20076;-57
2023/08/21 10:47:58;;;;;;;7.07;6.03;;;;;;;;;;5040812;28;20103;-57
2023/08/21 10:50:26;;;;;;;8.00;7.20;;;;;;;;;;5048199;28;20079;-57
2023/08/21 10:52:54;;;;;;;8.60;7.07;;;;;;;;;;5034336;28;20061;-64
2023/08/21 10:55:21;;;;;;;7.63;6.82;;;;;;;;;;5042093;28;20637;-60
2023/08/21 10:57:49;;;;;;;7.72;6.93;;;;;;;;;;5051705;28;20542;-65
2023/08/21 11:00:17;;;;;;;10.15;7.78;;;;;;;;;;5051779;28;20048;-57
2023/08/21 11:02:45;;;;;;;9.93;7.68;;;;;;;;;;5047675;28;20041;-58
2023/08/21 11:05:13;;;;;;;10.00;7.40;;;;;;;;;;5051708;28;20413;-58
2023/08/21 11:07:43;;;;;;;8.13;7.28;;;;;;;;;;5047464;28;20546;-58
2023/08/21 11:10:13;;;;;;;11.38;8.13;;;;;;;;;;5051195;28;20049;-54
2023/08/21 11:12:48;;;;;;;7.82;7.03;;;;;;;;;;5042340;28;20045;-52
2023/08/21 11:15:16;;;;;;;7.50;6.43;;;;;;;;;;5050684;28;20045;-53
2023/08/21 11:17:43;;;;;;;7.28;6.53;;;;;;;;;;5046532;28;20048;-50
2023/08/21 11:20:11;;;;;;;7.35;6.47;;;;;;;;;;5052351;28;20053;-49
2023/08/21 11:22:38;;;;;;;7.65;6.45;;;;;;;;;;5050739;28;20103;-49
2023/08/21 11:25:07;;;;;;;7.55;6.30;;;;;;;;;;5047401;28;20556;-57
2023/08/21 11:27:34;;;;;;;7.95;7.05;;;;;;;;;;5043817;28;20341;-56
2023/08/21 11:30:02;;;;;;;9.75;7.28;;;;;;;;;;5047434;28;20202;-56
2023/08/21 11:32:29;;;;;;;9.27;7.78;;;;;;;;;;5050903;28;20417;-58
2023/08/21 11:34:57;;;;;;;8.48;7.45;;;;;;;;;;5047899;28;20049;-56
2023/08/21 11:37:26;;;;;;;8.30;7.43;;;;;;;;;;5048025;28;20049;-59
2023/08/21 11:39:54;;;;;;;9.43;7.68;;;;;;;;;;5048530;28;20046;-56
2023/08/21 11:42:23;;;;;;;7.97;7.18;;;;;;;;;;5043256;28;20055;-55
2023/08/21 11:44:52;;;;;;;7.25;6.55;;;;;;;;;;5042876;28;20048;-59
2023/08/21 11:47:21;;;;;;;8.52;6.47;;;;;;;;;;5048234;28;20073;-53
2023/08/21 11:49:49;;;;;;;7.63;6.25;;;;;;;;;;5048380;28;20048;-57
2023/08/21 11:52:19;;;;;;;8.05;6.40;;;;;;;;;;5048492;28;20047;-61
2023/08/21 11:54:49;;;;;;;6.68;5.88;;;;;;;;;;5046283;28;20140;-60
2023/08/21 11:57:16;;;;;;;8.00;6.47;;;;;;;;;;5047334;28;20045;-57
2023/08/21 11:59:44;;;;;;;9.35;6.63;;;;;;;;;;5044469;28;20048;-57
2023/08/21 12:02:13;;;;;;;7.05;6.35;;;;;;;;;;5050699;28;20049;-54
2023/08/21 12:04:40;;;;;;;6.88;6.03;;;;;;;;;;5046771;28;20099;-54
2023/08/21 12:07:06;;;;;;;8.75;6.32;;;;;;;;;;5040933;28;20509;-59
2023/08/21 12:09:33;;;;;;;7.25;6.55;;;;;;;;;;5046062;28;20049;-58
2023/08/21 12:12:00;;;;;;;7.40;6.43;;;;;;;;;;5050767;28;20479;-61
2023/08/21 12:14:28;;;;;;;7.82;6.32;;;;;;;;;;5050845;28;20045;-59
2023/08/21 12:16:57;;;;;;;7.05;6.38;;;;;;;;;;5044139;28;20049;-59
2023/08/21 12:19:24;;;;;;;7.35;6.55;;;;;;;;;;5050618;28;20220;-58
2023/08/21 12:21:51;;;;;;;7.47;6.68;;;;;;;;;;5046906;28;20071;-55
2023/08/21 12:24:18;;;;;;;8.25;6.45;;;;;;;;;;5049176;28;20123;-60
2023/08/21 12:26:44;;;;;;;7.15;6.40;;;;;;;;;;5048053;28;20049;-56
2023/08/21 12:29:11;;;;;;;8.35;7.05;;;;;;;;;;5048667;28;20387;-58
2023/08/21 12:31:38;;;;;;;10.20;7.28;;;;;;;;;;5050262;28;20076;-54
2023/08/21 12:34:06;;;;;;;8.45;7.55;;;;;;;;;;5050972;28;20476;-56
2023/08/21 12:36:35;;;;;;;7.50;6.70;;;;;;;;;;5050260;28;20077;-56
2023/08/21 12:39:02;;;;;;;9.88;7.20;;;;;;;;;;5044117;28;20057;-53
2023/08/21 12:41:28;;;;;;;7.70;6.78;;;;;;;;;;5037238;28;20132;-55
2023/08/21 12:43:55;;;;;;;7.97;7.18;;;;;;;;;;5048158;28;20052;-54
2023/08/21 12:46:22;;;;;;;8.88;7.00;;;;;;;;;;5047738;28;20448;-59
2023/08/21 12:48:49;;;;;;;8.30;6.60;;;;;;;;;;5041222;28;20048;-55
2023/08/21 12:51:17;;;;;;;8.10;6.50;;;;;;;;;;5045898;28;20079;-52
2023/08/21 12:53:44;;;;;;;7.63;6.82;;;;;;;;;;5045968;28;20080;-57
2023/08/21 12:56:11;;;;;;;8.00;7.20;;;;;;;;;;5049457;28;20411;-56
2023/08/21 12:58:37;;;;;;;7.40;6.70;;;;;;;;;;5046172;28;20059;-59
2023/08/21 13:01:05;;;;;;;7.60;6.80;;;;;;;;;;5049327;28;20048;-58
2023/08/21 13:03:31;;;;;;;7.40;6.60;;;;;;;;;;5050258;28;20060;-59
2023/08/21 13:05:58;;;;;;;6.70;5.88;;;;;;;;;;5045770;28;20049;-58
2023/08/21 13:08:26;;;;;;;8.40;6.88;;;;;;;;;;5044279;28;20367;-55
2023/08/21 13:10:53;;;;;;;8.33;6.90;;;;;;;;;;5049661;28;20110;-55
2023/08/21 13:13:20;;;;;;;9.50;6.30;;;;;;;;;;5049515;28;20072;-58
2023/08/21 13:15:47;;;;;;;7.85;5.72;;;;;;;;;;5048843;28;20045;-58
2023/08/21 13:18:14;;;;;;;9.35;6.43;;;;;;;;;;5049806;28;20045;-58
2023/08/21 13:20:41;;;;;;;7.30;6.00;;;;;;;;;;5049381;28;20048;-54
2023/08/21 13:23:08;;;;;;;7.00;5.53;;;;;;;;;;5050291;28;20048;-58
2023/08/21 13:25:36;;;;;;;6.95;5.85;;;;;;;;;;5049216;28;20055;-57
2023/08/21 13:28:03;;;;;;;7.90;6.43;;;;;;;;;;5047012;28;20049;-57
2023/08/21 13:30:31;;;;;;;8.57;6.53;;;;;;;;;;5044508;28;20048;-52
2023/08/21 13:32:57;;;;;;;7.28;6.45;;;;;;;;;;5049523;28;20053;-56
2023/08/21 13:35:24;;;;;;;9.13;7.30;;;;;;;;;;5043823;28;20149;-55
2023/08/21 13:37:51;;;;;;;8.88;6.63;;;;;;;;;;5037750;28;20494;-57
2023/08/21 13:40:18;;;;;;;8.25;6.88;;;;;;;;;;5045873;28;20136;-56
2023/08/21 13:42:48;;;;;;;8.10;6.65;;;;;;;;;;5049181;28;20045;-58
2023/08/21 13:45:17;;;;;;;8.15;7.10;;;;;;;;;;5048883;28;20052;-57
2023/08/21 13:47:45;;;;;;;7.40;6.70;;;;;;;;;;5049245;28;20567;-59
2023/08/21 13:50:12;;;;;;;9.25;7.68;;;;;;;;;;5048776;28;20471;-56
2023/08/21 13:52:40;;;;;;;7.95;7.15;;;;;;;;;;5049082;28;20041;-59
2023/08/21 13:55:08;;;;;;;8.88;7.50;;;;;;;;;;5044912;28;20349;-57
2023/08/21 13:57:35;;;;;;;7.30;6.32;;;;;;;;;;5048720;28;20144;-58
2023/08/21 14:00:07;;;;;;;8.10;6.80;;;;;;;;;;5046176;28;20124;-56
2023/08/21 14:02:34;;;;;;;7.20;6.50;;;;;;;;;;5044521;28;20045;-55
2023/08/21 14:05:00;;;;;;;6.95;6.32;;;;;;;;;;5048927;28;20514;-58
2023/08/21 14:07:27;;;;;;;8.93;7.10;;;;;;;;;;5045483;28;20128;-54
2023/08/21 14:09:53;;;;;;;7.95;6.78;;;;;;;;;;5048553;28;20103;-56
2023/08/21 14:12:20;;;;;;;6.95;6.30;;;;;;;;;;5048634;28;20053;-59
2023/08/21 14:14:47;;;;;;;6.97;6.20;;;;;;;;;;5048871;28;20123;-60
2023/08/21 14:17:15;;;;;;;9.70;6.50;;;;;;;;;;5048132;28;20047;-57
2023/08/21 14:19:42;;;;;;;10.65;7.25;;;;;;;;;;5048202;28;20044;-58
2023/08/21 14:22:08;;;;;;;8.57;6.68;;;;;;;;;;5047977;28;20088;-59
2023/08/21 14:24:35;;;;;;;7.47;6.63;;;;;;;;;;5048288;28;20051;-53
2023/08/21 14:27:02;;;;;;;7.40;6.20;;;;;;;;;;5043954;28;20091;-56
2023/08/21 14:29:29;;;;;;;7.05;6.35;;;;;;;;;;5046335;28;20152;-57
2023/08/21 14:31:57;;;;;;;8.35;6.40;;;;;;;;;;5049308;28;20414;-59
2023/08/21 14:34:25;;;;;;;7.10;6.40;;;;;;;;;;5055216;28;20045;-59